Time;durP1;ratioP1;P1;durP2;ratioP2;P2;SDS_P1;SDS_P2;PMS_P1;PMS_P2;Temp;Humidity;BMP_temperature;BMP_pressure;BME280_temperature;BME280_humidity;BME280_pressure;Samples;Min_cycle;Max_cycle;Signal;HPM_P1;HPM_P2
2022/08/11 00:00:10;;;;;;;3.00;1.60;;;23.70;61.30;;;;;;5080428;28;20060;-88
2022/08/11 00:03:02;;;;;;;2.00;1.50;;;23.70;61.40;;;;;;5047311;28;20048;-89
2022/08/11 00:05:33;;;;;;;2.75;1.52;;;23.70;61.40;;;;;;5058075;28;20021;-88
2022/08/11 00:08:02;;;;;;;2.95;1.67;;;23.70;61.50;;;;;;5078311;28;20128;-88
2022/08/11 00:10:36;;;;;;;2.55;1.70;;;23.60;61.60;;;;;;5080351;28;20029;-88
2022/08/11 00:13:08;;;;;;;2.65;1.63;;;23.60;61.80;;;;;;5049062;28;20032;-88
2022/08/11 00:16:00;;;;;;;3.22;1.70;;;23.50;61.90;;;;;;5064350;28;20040;-89
2022/08/11 00:18:46;;;;;;;2.58;1.60;;;23.60;62.00;;;;;;5083597;28;20477;-88
2022/08/11 00:21:20;;;;;;;3.17;1.80;;;23.60;62.10;;;;;;5086527;28;20068;-87
2022/08/11 00:26:56;;;;;;;2.85;1.67;;;23.60;62.30;;;;;;5085747;28;20047;-87
2022/08/11 00:29:40;;;;;;;3.00;1.80;;;23.50;62.30;;;;;;5099822;28;20028;-87
2022/08/11 00:32:19;;;;;;;3.08;1.83;;;23.60;62.40;;;;;;5091812;28;20021;-90
2022/08/11 00:34:48;;;;;;;2.72;1.80;;;23.50;62.50;;;;;;5081033;28;20078;-90
2022/08/11 00:37:50;;;;;;;3.10;1.70;;;23.50;62.60;;;;;;5080790;28;20051;-88
2022/08/11 00:40:26;;;;;;;4.65;2.15;;;23.50;62.70;;;;;;5078437;28;20037;-89
2022/08/11 00:43:07;;;;;;;2.10;1.60;;;23.40;62.80;;;;;;5067141;28;20025;-88
2022/08/11 00:45:41;;;;;;;2.60;1.80;;;23.40;63.50;;;;;;5068485;28;20025;-86
2022/08/11 00:48:35;;;;;;;3.83;1.60;;;23.40;63.00;;;;;;5083603;28;20123;-85
2022/08/11 00:51:52;;;;;;;2.20;1.60;;;23.40;63.00;;;;;;5089870;28;20049;-87
2022/08/11 00:55:01;;;;;;;1.98;1.70;;;23.40;63.10;;;;;;5086140;28;20032;-88
2022/08/11 00:57:59;;;;;;;3.83;1.80;;;23.40;63.20;;;;;;5079923;28;20031;-89
2022/08/11 01:00:32;;;;;;;3.33;1.85;;;23.40;63.30;;;;;;5081034;28;20028;-90
2022/08/11 01:03:47;;;;;;;2.58;1.70;;;23.30;63.40;;;;;;5063755;28;20039;-89
2022/08/11 01:06:50;;;;;;;4.25;1.90;;;23.30;63.70;;;;;;5076645;28;20020;-88
2022/08/11 01:10:08;;;;;;;2.67;1.60;;;23.10;63.90;;;;;;5081282;28;20027;-86
2022/08/11 01:13:02;;;;;;;3.05;1.80;;;23.10;64.10;;;;;;5079379;28;20029;-89
2022/08/11 01:15:59;;;;;;;3.30;1.70;;;23.00;64.30;;;;;;5079999;28;20111;-89
2022/08/11 01:18:59;;;;;;;2.45;1.80;;;23.00;64.50;;;;;;5077193;28;20028;-90
2022/08/11 01:22:00;;;;;;;2.65;1.70;;;23.00;64.40;;;;;;5079068;28;20462;-89
2022/08/11 01:24:58;;;;;;;3.75;1.98;;;23.10;64.40;;;;;;5082047;28;20033;-90
2022/08/11 01:27:42;;;;;;;1.98;1.33;;;23.00;64.50;;;;;;5078199;28;20044;-89
2022/08/11 01:30:55;;;;;;;3.40;1.85;;;23.00;64.50;;;;;;5080040;28;20478;-86
2022/08/11 01:34:03;;;;;;;3.35;1.65;;;23.00;64.60;;;;;;4999515;28;20053;-89
2022/08/11 01:36:55;;;;;;;1.70;1.52;;;23.00;64.60;;;;;;5065248;28;20049;-89
2022/08/11 01:39:52;;;;;;;2.53;1.58;;;23.00;64.90;;;;;;5060140;28;20036;-90
2022/08/11 01:45:46;;;;;;;2.28;1.80;;;22.90;65.00;;;;;;5039256;28;20035;-88
2022/08/11 01:48:43;;;;;;;2.75;2.00;;;22.90;65.10;;;;;;5079949;28;20029;-89
2022/08/11 01:51:29;;;;;;;2.60;1.90;;;22.80;65.30;;;;;;5078760;28;20048;-88
2022/08/11 01:54:16;;;;;;;2.35;1.60;;;22.80;65.30;;;;;;5080075;28;20031;-90
2022/08/11 01:57:20;;;;;;;2.55;1.63;;;22.80;65.30;;;;;;5062983;28;20036;-90
2022/08/11 01:59:57;;;;;;;2.58;1.50;;;22.90;65.40;;;;;;5074275;28;20164;-89
2022/08/11 02:02:52;;;;;;;2.75;1.50;;;22.90;66.10;;;;;;5077484;28;20478;-89
2022/08/11 02:05:59;;;;;;;2.00;1.67;;;22.90;65.50;;;;;;5078413;28;20032;-88
2022/08/11 02:08:56;;;;;;;3.70;1.85;;;22.80;65.60;;;;;;5060126;28;20104;-89
2022/08/11 02:11:32;;;;;;;1.80;1.60;;;22.80;65.60;;;;;;5061267;28;20036;-88
2022/08/11 02:14:36;;;;;;;3.05;1.65;;;22.80;66.30;;;;;;5079410;28;20040;-88
2022/08/11 02:17:39;;;;;;;2.45;1.60;;;22.70;65.60;;;;;;5063089;28;20044;-88
2022/08/11 02:23:40;;;;;;;1.90;1.63;;;22.80;65.80;;;;;;5096786;28;20084;-87
2022/08/11 02:26:19;;;;;;;2.83;1.70;;;22.70;65.70;;;;;;5098039;28;20013;-89
2022/08/11 02:29:25;;;;;;;2.83;1.65;;;22.70;66.00;;;;;;5095890;28;20028;-88
2022/08/11 02:35:09;;;;;;;2.28;1.60;;;22.60;66.10;;;;;;5078330;28;20055;-87
2022/08/11 02:38:15;;;;;;;3.25;1.88;;;22.60;66.20;;;;;;5090458;28;20028;-87
2022/08/11 02:41:00;;;;;;;3.28;1.60;;;22.60;66.20;;;;;;5079800;28;20021;-88
2022/08/11 02:43:39;;;;;;;2.85;1.58;;;22.50;66.60;;;;;;5066083;28;20024;-89
2022/08/11 02:46:17;;;;;;;2.63;1.90;;;22.40;66.80;;;;;;5078383;28;20033;-88
2022/08/11 02:52:35;;;;;;;3.30;2.25;;;22.40;67.10;;;;;;5079135;28;20130;-88
2022/08/11 02:55:23;;;;;;;4.13;1.70;;;22.30;67.30;;;;;;5078222;28;20035;-89
2022/08/11 02:58:21;;;;;;;2.22;1.80;;;22.40;67.40;;;;;;5078661;28;20032;-89
2022/08/11 03:00:52;;;;;;;2.35;1.90;;;22.30;67.40;;;;;;5077612;28;20056;-89
2022/08/11 03:03:32;;;;;;;4.15;1.90;;;22.20;67.60;;;;;;5078196;28;20041;-88
2022/08/11 03:06:48;;;;;;;2.80;1.70;;;22.20;67.80;;;;;;5080169;28;20103;-89
2022/08/11 03:09:43;;;;;;;1.50;1.40;;;22.20;67.80;;;;;;5017520;28;20033;-90
2022/08/11 03:18:23;;;;;;;3.00;1.77;;;22.20;67.90;;;;;;5022686;28;20560;-90
2022/08/11 03:21:36;;;;;;;6.15;1.85;;;22.20;68.10;;;;;;5079094;28;20428;-89
2022/08/11 03:24:34;;;;;;;2.95;1.85;;;22.10;68.10;;;;;;5057476;28;20041;-90
2022/08/11 03:27:02;;;;;;;2.70;1.77;;;22.10;68.10;;;;;;5062703;28;20033;-91
2022/08/11 03:29:44;;;;;;;3.65;2.05;;;22.10;68.40;;;;;;5078697;28;20390;-88
2022/08/11 03:34:00;;;;;;;7.57;2.13;;;22.10;68.50;;;;;;5078627;28;20107;-89
2022/08/11 03:35:36;;;;;;;3.63;2.17;;;22.00;68.60;;;;;;5079422;28;20470;-89
2022/08/11 03:38:13;;;;;;;2.83;1.90;;;22.00;68.80;;;;;;5077141;28;20603;-89
2022/08/11 03:44:26;;;;;;;2.97;1.95;;;21.90;69.10;;;;;;5079254;28;20054;-88
2022/08/11 03:47:01;;;;;;;3.17;2.30;;;21.90;69.30;;;;;;5081193;28;20093;-88
2022/08/11 03:50:01;;;;;;;2.42;1.98;;;21.90;69.40;;;;;;5080980;28;20050;-88
2022/08/11 03:52:57;;;;;;;3.92;2.13;;;21.80;69.70;;;;;;5082901;28;20029;-89
2022/08/11 03:55:22;;;;;;;2.42;2.20;;;21.70;69.90;;;;;;5081737;28;20707;-90
2022/08/11 03:58:30;;;;;;;5.93;2.25;;;21.60;70.10;;;;;;5081723;28;20123;-87
2022/08/11 04:01:32;;;;;;;3.25;2.13;;;21.60;70.50;;;;;;4985471;28;20677;-88
2022/08/11 04:04:20;;;;;;;3.17;2.20;;;21.60;70.40;;;;;;5082455;28;20025;-87
2022/08/11 04:07:24;;;;;;;2.70;1.90;;;21.60;70.50;;;;;;5081380;28;20037;-89
2022/08/11 04:10:14;;;;;;;3.53;2.38;;;21.60;70.60;;;;;;5077116;28;20028;-88
2022/08/11 04:12:56;;;;;;;2.38;2.00;;;21.70;70.50;;;;;;5062648;28;20032;-89
2022/08/11 04:16:02;;;;;;;3.53;2.15;;;21.70;70.30;;;;;;5077942;28;20051;-89
2022/08/11 04:18:57;;;;;;;5.45;2.38;;;21.70;70.30;;;;;;5081772;28;20088;-90
2022/08/11 04:21:56;;;;;;;3.38;2.13;;;21.70;70.60;;;;;;5081481;28;20040;-89
2022/08/11 04:24:23;;;;;;;2.28;2.08;;;21.60;70.70;;;;;;5067731;28;20028;-90
2022/08/11 04:27:14;;;;;;;4.63;2.30;;;21.50;70.80;;;;;;5080432;28;20109;-87
2022/08/11 04:30:04;;;;;;;4.20;2.00;;;21.50;71.10;;;;;;5094877;28;20032;-87
2022/08/11 04:33:14;;;;;;;3.65;2.35;;;21.50;71.10;;;;;;5099478;28;20052;-89
2022/08/11 04:37:30;;;;;;;4.63;2.43;;;21.50;71.10;;;;;;5099571;28;20014;-89
2022/08/11 04:39:18;;;;;;;3.63;2.50;;;21.50;71.10;;;;;;5100145;28;20044;-87
2022/08/11 04:45:04;;;;;;;3.03;2.20;;;21.40;71.40;;;;;;5093193;28;20042;-89
2022/08/11 05:07:51;;;;;;;4.00;2.47;;;21.30;72.00;;;;;;5062541;28;20028;-89
2022/08/11 05:11:11;;;;;;;3.03;2.10;;;21.40;72.00;;;;;;5074758;28;20028;-89
2022/08/11 05:35:03;;;;;;;4.07;2.60;;;21.60;72.20;;;;;;5079597;28;20060;-89
2022/08/11 05:37:29;;;;;;;2.83;2.28;;;21.60;72.20;;;;;;5061375;28;20025;-90
2022/08/11 05:57:57;;;;;;;5.15;2.42;;;21.80;72.40;;;;;;5066813;28;20082;-89
2022/08/11 06:00:53;;;;;;;4.28;2.30;;;21.80;72.30;;;;;;5062659;28;20033;-89
2022/08/11 06:03:31;;;;;;;4.13;2.60;;;21.80;72.10;;;;;;5063033;28;20024;-89
2022/08/11 06:05:58;;;;;;;5.38;2.58;;;21.90;72.00;;;;;;5063374;28;20028;-90
2022/08/11 06:08:40;;;;;;;3.60;3.05;;;21.90;72.00;;;;;;5061827;28;20032;-90
2022/08/11 06:11:07;;;;;;;3.17;2.50;;;21.90;71.80;;;;;;5046518;28;20032;-89
2022/08/11 06:13:44;;;;;;;5.20;3.00;;;21.90;71.80;;;;;;5062842;28;20047;-90
2022/08/11 06:16:20;;;;;;;3.88;2.42;;;21.90;71.30;;;;;;5062579;28;20024;-91
2022/08/11 06:18:52;;;;;;;3.58;2.60;;;21.90;71.30;;;;;;5042996;28;20398;-89
2022/08/11 06:21:33;;;;;;;7.55;2.50;;;22.00;71.30;;;;;;5026704;28;20636;-88
2022/08/11 06:24:13;;;;;;;2.90;2.60;;;22.00;71.20;;;;;;5060342;28;20051;-89
2022/08/11 06:26:54;;;;;;;3.42;2.78;;;22.00;70.90;;;;;;5042925;28;20028;-89
2022/08/11 06:29:28;;;;;;;3.28;2.60;;;22.00;70.70;;;;;;5052991;28;20029;-89
2022/08/11 06:32:15;;;;;;;;;;;;;;;;;;;;;
2022/08/11 06:35:25;;;;;;;5.13;2.42;;;22.00;70.70;;;;;;5083353;28;20036;-89
2022/08/11 06:38:22;;;;;;;3.80;2.60;;;22.00;71.30;;;;;;5098501;28;20086;-88
2022/08/11 06:41:32;;;;;;;3.17;2.63;;;22.00;71.60;;;;;;5079351;28;20020;-90
2022/08/11 06:44:15;;;;;;;3.33;2.65;;;22.10;71.80;;;;;;5098147;28;20027;-88
2022/08/11 06:47:06;;;;;;;4.63;2.53;;;22.10;72.00;;;;;;5063530;28;20059;-88
2022/08/11 06:53:03;;;;;;;;;;;;;;;;;;;;;
2022/08/11 07:01:55;;;;;;;5.18;2.60;;;22.40;71.20;;;;;;5060328;28;20044;-91
2022/08/11 07:04:42;;;;;;;3.00;2.15;;;22.40;71.10;;;;;;5050916;28;20033;-89
2022/08/11 07:17:36;;;;;;;4.28;2.13;;;22.60;69.80;;;;;;4960289;29;20072;-90
2022/08/11 07:28:57;;;;;;;3.90;2.45;;;22.80;69.20;;;;;;5063317;28;20044;-88
2022/08/11 07:31:47;;;;;;;3.30;2.17;;;23.00;69.30;;;;;;5037733;28;20024;-89
2022/08/11 07:34:39;;;;;;;3.15;2.30;;;23.00;68.90;;;;;;5057680;28;20108;-88
2022/08/11 07:37:19;;;;;;;2.58;2.13;;;23.00;68.70;;;;;;5039364;28;20516;-88
2022/08/11 07:39:52;;;;;;;2.65;1.80;;;23.10;68.50;;;;;;5038391;28;20029;-89
2022/08/11 07:42:39;;;;;;;1.90;1.70;;;23.20;68.50;;;;;;5022986;28;20029;-90
2022/08/11 07:53:33;;;;;;;2.78;1.92;;;23.60;67.90;;;;;;5077493;28;20763;-88
2022/08/11 07:56:04;;;;;;;2.42;2.10;;;23.60;67.80;;;;;;5059612;28;20375;-90
2022/08/11 08:19:07;;;;;;;3.67;2.30;;;24.20;66.30;;;;;;5062159;28;20044;-89
2022/08/11 08:21:40;;;;;;;2.53;2.20;;;24.30;66.00;;;;;;5059132;28;20025;-92
2022/08/11 08:24:30;;;;;;;;;;;;;;;;;;;;;
2022/08/11 08:27:29;;;;;;;;;;;;;;;;;;;;;
2022/08/11 08:33:36;;;;;;;2.50;2.00;;;24.50;64.80;;;;;;5060850;28;20044;-90
2022/08/11 08:39:38;;;;;;;;;;;;;;;;;;;;;
2022/08/11 08:45:18;;;;;;;2.95;2.40;;;24.90;64.20;;;;;;5082702;28;20013;-90
2022/08/11 08:48:15;;;;;;;2.05;1.85;;;25.00;64.00;;;;;;5067060;28;20009;-90
2022/08/11 08:54:14;;;;;;;2.72;2.08;;;25.20;64.10;;;;;;5078041;28;20032;-90
2022/08/11 08:57:01;;;;;;;3.15;2.30;;;25.30;63.40;;;;;;5080961;28;20044;-90
2022/08/11 08:59:49;;;;;;;4.50;2.25;;;25.40;63.10;;;;;;5069596;28;20028;-89
2022/08/11 09:02:31;;;;;;;3.90;2.22;;;25.40;62.90;;;;;;5058806;28;20119;-91
2022/08/11 09:05:29;;;;;;;4.43;2.10;;;25.50;63.00;;;;;;5057902;28;20460;-90
2022/08/11 09:08:17;;;;;;;2.95;1.95;;;25.50;62.50;;;;;;5044873;28;20497;-90
2022/08/11 09:11:48;;;;;;;2.58;2.17;;;25.60;62.80;;;;;;5058518;28;20024;-89
2022/08/11 09:16:57;;;;;;;3.25;2.17;;;25.80;62.20;;;;;;5075919;28;20052;-90
2022/08/11 09:19:36;;;;;;;5.20;2.13;;;25.90;61.70;;;;;;5058097;28;20032;-89
2022/08/11 09:28:28;;;;;;;3.45;1.85;;;26.10;61.00;;;;;;5060728;28;20393;-91
2022/08/11 09:31:32;;;;;;;2.75;1.90;;;26.20;61.10;;;;;;5057591;28;20466;-91
2022/08/11 09:34:16;;;;;;;;;;;;;;;;;;;;;
2022/08/11 09:52:52;;;;;;;;;;;;;;;;;;;;;
2022/08/11 09:55:39;;;;;;;;;;;;;;;;;;;;;
2022/08/11 09:58:33;;;;;;;5.53;2.28;;;26.90;58.40;;;;;;5074613;28;19908;-89
2022/08/11 10:04:41;;;;;;;;;;;;;;;;;;;;;
2022/08/11 10:07:37;;;;;;;;;;;;;;;;;;;;;
2022/08/11 10:10:24;;;;;;;3.92;2.20;;;27.20;56.80;;;;;;5075490;28;20023;-89
2022/08/11 10:15:32;;;;;;;3.17;2.00;;;27.30;56.10;;;;;;5076770;28;20473;-91
2022/08/11 10:16:55;;;;;;;;;;;;;;;;;;;;;
2022/08/11 10:20:16;;;;;;;2.28;1.92;;;27.40;55.40;;;;;;5075015;28;20040;-91
2022/08/11 10:28:32;;;;;;;2.53;1.90;;;27.60;55.20;;;;;;5074816;28;20036;-88
2022/08/11 10:37:35;;;;;;;3.13;2.20;;;27.80;53.90;;;;;;5060761;28;20542;-88
2022/08/11 10:40:24;;;;;;;2.55;2.00;;;27.90;53.90;;;;;;5074743;28;20390;-92
2022/08/11 10:43:15;;;;;;;;;;;;;;;;;;;;;
2022/08/11 11:00:36;;;;;;;2.65;1.90;;;28.30;52.70;;;;;;5102005;28;20064;-88
2022/08/11 11:03:11;;;;;;;2.97;1.65;;;28.40;53.10;;;;;;5101540;28;20092;-90
2022/08/11 11:06:09;;;;;;;3.70;1.65;;;28.40;53.10;;;;;;5095691;28;20023;-89
2022/08/11 11:08:53;;;;;;;3.78;2.20;;;28.50;52.50;;;;;;5077722;28;20561;-90
2022/08/11 11:18:05;;;;;;;2.58;1.95;;;28.70;51.60;;;;;;5074880;28;20093;-90
2022/08/11 11:20:51;;;;;;;2.15;1.90;;;28.70;52.10;;;;;;5065687;28;20043;-91
2022/08/11 11:23:47;;;;;;;4.80;1.60;;;28.80;51.50;;;;;;5077119;28;20037;-90
2022/08/11 11:26:55;;;;;;;1.90;1.50;;;28.80;51.60;;;;;;5076830;28;20020;-89
2022/08/11 11:29:58;;;;;;;1.73;1.63;;;28.90;50.50;;;;;;5076822;28;20033;-89
2022/08/11 11:33:03;;;;;;;1.30;1.20;;;28.90;50.70;;;;;;5076463;28;20032;-89
2022/08/11 11:35:54;;;;;;;3.22;2.08;;;29.00;50.60;;;;;;5076283;28;20115;-89
2022/08/11 11:38:21;;;;;;;1.90;1.67;;;29.00;49.40;;;;;;5076196;28;20082;-88
2022/08/11 11:44:04;;;;;;;2.40;1.45;;;29.10;50.30;;;;;;5077542;28;20047;-90
2022/08/11 11:46:34;;;;;;;5.45;1.75;;;29.10;50.50;;;;;;5061994;28;20028;-88
2022/08/11 11:49:06;;;;;;;;;;;29.20;50.90;;;;;;5077038;28;20062;-90
2022/08/11 11:51:41;;;;;;;3.50;1.92;;;29.30;50.30;;;;;;5077805;28;19924;-88
2022/08/11 11:54:08;;;;;;;1.75;1.55;;;29.30;49.50;;;;;;5061517;28;20024;-89
2022/08/11 11:56:48;;;;;;;3.85;1.60;;;29.30;49.80;;;;;;5061286;28;20050;-89
2022/08/11 12:02:23;;;;;;;3.50;1.70;;;29.30;49.90;;;;;;5077738;28;20067;-88
2022/08/11 12:05:13;;;;;;;2.33;1.83;;;29.40;49.20;;;;;;5075687;28;20027;-90
2022/08/11 12:10:42;;;;;;;1.55;1.45;;;29.50;48.80;;;;;;5078636;28;20089;-94
2022/08/11 12:16:03;;;;;;;2.47;1.70;;;29.50;48.30;;;;;;5077716;28;20039;-91
2022/08/11 12:18:44;;;;;;;1.92;1.70;;;29.60;47.90;;;;;;5059348;28;20123;-92
2022/08/11 12:21:14;;;;;;;4.32;1.90;;;29.60;48.30;;;;;;5075499;28;20085;-89
2022/08/11 12:29:34;;;;;;;2.45;1.50;;;29.80;47.90;;;;;;5077705;28;19911;-88
2022/08/11 12:32:06;;;;;;;3.88;1.60;;;29.80;48.10;;;;;;5059056;28;20052;-89
2022/08/11 12:34:34;;;;;;;1.70;1.60;;;29.90;48.50;;;;;;5076624;28;20086;-90
2022/08/11 12:37:09;;;;;;;1.50;1.40;;;29.90;48.60;;;;;;5058894;28;20028;-90
2022/08/11 12:45:30;;;;;;;3.45;1.65;;;30.10;47.40;;;;;;5076525;28;20032;-91
2022/08/11 12:54:26;;;;;;;;;;;30.10;46.40;;;;;;5077798;28;20086;-90
2022/08/11 13:05:32;;;;;;;4.18;1.65;;;30.20;47.80;;;;;;5083969;28;20062;-90
2022/08/11 13:08:05;;;;;;;3.75;1.58;;;30.30;46.30;;;;;;5082480;28;20020;-92
2022/08/11 13:13:59;;;;;;;1.40;1.20;;;30.40;45.40;;;;;;5100166;28;20055;-88
2022/08/11 13:17:19;;;;;;;2.45;1.50;;;30.40;45.50;;;;;;5079618;28;20025;-89
2022/08/11 13:19:51;;;;;;;1.67;1.40;;;30.40;45.60;;;;;;5098538;28;20050;-93
2022/08/11 13:22:20;;;;;;;2.58;1.70;;;30.50;45.30;;;;;;5099538;28;20180;-89
2022/08/11 13:24:56;;;;;;;2.17;1.40;;;30.50;45.10;;;;;;5097063;28;20028;-90
2022/08/11 13:27:23;;;;;;;1.65;1.45;;;30.50;44.30;;;;;;5095531;28;20040;-89
2022/08/11 13:31:09;;;;;;;2.50;1.83;;;30.60;43.90;;;;;;5076754;28;20020;-88
2022/08/11 13:32:53;;;;;;;1.92;1.55;;;30.70;44.40;;;;;;5060722;28;20112;-90
2022/08/11 13:35:45;;;;;;;2.45;1.58;;;30.70;44.10;;;;;;5074705;28;20428;-89
2022/08/11 13:38:13;;;;;;;2.75;1.60;;;30.70;44.00;;;;;;5074569;28;20056;-89
2022/08/11 13:40:51;;;;;;;1.77;1.67;;;30.70;45.00;;;;;;5057799;28;20033;-89
2022/08/11 13:57:39;;;;;;;3.03;1.90;;;30.80;44.50;;;;;;5075252;28;20083;-90
2022/08/11 14:03:42;;;;;;;;;;;;;;;;;;;;;
2022/08/11 14:06:18;;;;;;;5.30;1.67;;;30.90;44.10;;;;;;5075416;28;20124;-90
2022/08/11 14:08:53;;;;;;;2.13;1.60;;;31.00;43.70;;;;;;5074044;28;20028;-88
2022/08/11 14:14:34;;;;;;;1.50;1.40;;;31.00;44.80;;;;;;5075195;28;20228;-88
2022/08/11 14:17:07;;;;;;;1.92;1.73;;;31.00;44.60;;;;;;5073758;28;20072;-90
2022/08/11 14:19:51;;;;;;;4.57;1.88;;;31.00;44.30;;;;;;5074175;28;20431;-88
2022/08/11 14:32:10;;;;;;;2.03;1.50;;;31.00;44.30;;;;;;5074885;28;20089;-89
2022/08/11 14:37:27;;;;;;;2.53;1.63;;;31.10;44.50;;;;;;4999151;28;20566;-88
2022/08/11 14:40:00;;;;;;;2.75;1.35;;;31.10;43.80;;;;;;5062481;28;20037;-88
2022/08/11 14:48:17;;;;;;;2.78;1.50;;;31.20;43.40;;;;;;5073458;28;20401;-87
2022/08/11 14:50:45;;;;;;;3.58;1.60;;;31.20;43.10;;;;;;5072390;28;20053;-87
2022/08/11 14:53:14;;;;;;;2.42;1.50;;;31.20;43.30;;;;;;5072207;28;20477;-88
2022/08/11 14:58:29;;;;;;;3.17;1.60;;;31.30;42.90;;;;;;5073663;28;20059;-85
2022/08/11 15:00:59;;;;;;;1.95;1.48;;;31.30;42.00;;;;;;5071879;28;20539;-87
2022/08/11 15:03:30;;;;;;;2.15;1.50;;;31.30;42.20;;;;;;5072367;28;20484;-87
2022/08/11 15:06:01;;;;;;;1.77;1.65;;;31.30;41.60;;;;;;5072009;28;20549;-86
2022/08/11 15:14:08;;;;;;;2.25;1.30;;;31.20;42.70;;;;;;5073529;28;20039;-87
2022/08/11 15:19:29;;;;;;;2.22;1.40;;;31.30;42.30;;;;;;5073704;28;20039;-87
2022/08/11 15:24:41;;;;;;;3.20;1.55;;;31.30;42.30;;;;;;5073277;28;20402;-86
2022/08/11 15:38:27;;;;;;;2.50;1.70;;;31.30;42.20;;;;;;5096957;28;20058;-89
2022/08/11 15:46:47;;;;;;;1.75;1.50;;;31.30;42.90;;;;;;5077401;28;20035;-88
2022/08/11 15:49:21;;;;;;;1.73;1.60;;;31.30;42.50;;;;;;5075773;28;20020;-87
2022/08/11 15:51:59;;;;;;;2.22;1.48;;;31.30;42.70;;;;;;5077025;28;20025;-87
2022/08/11 15:54:31;;;;;;;3.97;1.70;;;31.30;42.50;;;;;;5076253;28;20492;-87
2022/08/11 15:57:01;;;;;;;2.45;1.67;;;31.30;42.20;;;;;;5075389;28;20052;-87
2022/08/11 16:04:52;;;;;;;1.73;1.40;;;31.30;42.10;;;;;;5076432;28;20071;-87
2022/08/11 16:07:30;;;;;;;3.15;1.63;;;31.30;41.90;;;;;;5075157;28;20453;-86
2022/08/11 16:10:06;;;;;;;2.75;1.67;;;31.30;42.00;;;;;;5075243;28;20060;-87
2022/08/11 16:12:40;;;;;;;3.90;1.40;;;31.30;42.00;;;;;;5075282;28;20036;-87
2022/08/11 16:18:07;;;;;;;2.70;1.50;;;31.30;42.00;;;;;;5076258;28;20036;-88
2022/08/11 16:20:37;;;;;;;2.00;1.75;;;31.20;42.10;;;;;;5075156;28;20055;-87
2022/08/11 16:23:08;;;;;;;3.50;1.80;;;31.20;41.70;;;;;;5074692;28;20060;-88
2022/08/11 16:25:35;;;;;;;2.60;1.67;;;31.20;41.80;;;;;;5074340;28;20107;-87
2022/08/11 16:28:06;;;;;;;1.98;1.40;;;31.20;41.90;;;;;;5074620;28;20056;-88
2022/08/11 16:30:45;;;;;;;2.00;1.67;;;31.20;42.70;;;;;;5058642;28;20584;-88
2022/08/11 16:33:30;;;;;;;2.38;1.65;;;31.30;42.70;;;;;;5075404;28;20025;-89
2022/08/11 16:39:21;;;;;;;1.65;1.52;;;31.20;42.00;;;;;;5053804;28;20413;-90
2022/08/11 16:47:20;;;;;;;1.40;1.30;;;31.20;42.80;;;;;;5053743;28;20044;-87
2022/08/11 16:49:55;;;;;;;1.58;1.35;;;31.20;43.20;;;;;;5053400;28;20025;-88
2022/08/11 16:52:26;;;;;;;2.42;1.60;;;31.20;43.10;;;;;;5053221;28;20029;-87
2022/08/11 16:54:52;;;;;;;1.45;1.30;;;31.20;43.20;;;;;;5053543;28;20051;-89
2022/08/11 17:00:14;;;;;;;1.58;1.40;;;31.10;42.80;;;;;;5065171;28;20390;-88
2022/08/11 17:14:24;;;;;;;2.42;1.70;;;31.00;42.80;;;;;;5076161;28;20044;-87
2022/08/11 17:16:51;;;;;;;2.03;1.60;;;30.90;42.60;;;;;;5074565;28;20044;-88
2022/08/11 17:19:24;;;;;;;2.13;1.42;;;30.90;42.80;;;;;;5075633;28;20025;-88
2022/08/11 17:24:43;;;;;;;3.17;1.55;;;30.80;43.10;;;;;;5075936;28;20141;-90
2022/08/11 17:27:16;;;;;;;2.20;1.73;;;30.80;43.20;;;;;;5074337;28;20374;-90
2022/08/11 17:29:53;;;;;;;1.85;1.42;;;30.80;43.40;;;;;;5074351;28;20075;-88
2022/08/11 17:35:31;;;;;;;1.58;1.40;;;30.80;43.50;;;;;;5075158;28;20085;-88
2022/08/11 17:38:19;;;;;;;2.90;1.38;;;30.80;43.70;;;;;;5074025;28;20032;-88
2022/08/11 17:49:22;;;;;;;2.45;1.50;;;30.60;44.30;;;;;;5089002;28;20086;-91
2022/08/11 18:00:24;;;;;;;3.00;1.20;;;30.50;44.60;;;;;;5097452;28;20052;-88
2022/08/11 18:05:44;;;;;;;1.67;1.10;;;30.40;43.70;;;;;;5075277;28;20090;-88
